createdAt,value
2023-01-12T00:01:54.891Z,7.17
2023-01-12T00:04:22.433Z,7.17
2023-01-12T00:06:51.368Z,7.16
2023-01-12T00:09:18.892Z,7.18
2023-01-12T00:11:46.359Z,7.16
2023-01-12T00:14:14.197Z,7.16
2023-01-12T00:16:41.974Z,7.16
2023-01-12T00:19:12.050Z,7.13
2023-01-12T00:21:59.181Z,7.13
2023-01-12T00:24:28.968Z,7.12
2023-01-12T00:26:57.618Z,7.13
2023-01-12T00:29:26.282Z,7.15
2023-01-12T00:31:54.643Z,7.17
2023-01-12T00:34:23.034Z,7.20
2023-01-12T00:36:52.625Z,7.19
2023-01-12T00:39:21.013Z,7.18
2023-01-12T00:42:06.343Z,7.18
2023-01-12T00:44:51.600Z,7.15
2023-01-12T00:47:19.907Z,7.13
2023-01-12T00:49:48.558Z,7.12
2023-01-12T00:52:35.232Z,7.13
2023-01-12T00:55:02.739Z,7.12
2023-01-12T00:57:30.247Z,7.13
2023-01-12T00:59:59.176Z,7.12
2023-01-12T01:02:27.351Z,7.12
2023-01-12T01:04:54.829Z,7.14
2023-01-12T01:07:24.055Z,7.14
2023-01-12T01:09:52.400Z,7.15
2023-01-12T01:12:20.267Z,7.15
2023-01-12T01:14:48.395Z,7.16
2023-01-12T01:17:16.066Z,7.15
2023-01-12T01:19:43.970Z,7.12
2023-01-12T01:22:12.479Z,7.12
2023-01-12T01:24:41.461Z,7.14
2023-01-12T01:27:08.993Z,7.15
2023-01-12T01:29:36.589Z,7.18
2023-01-12T01:32:04.346Z,7.20
2023-01-12T01:34:31.916Z,7.23
2023-01-12T01:36:59.842Z,7.26
2023-01-12T01:39:27.382Z,7.29
2023-01-12T01:41:56.240Z,7.29
2023-01-12T01:44:53.855Z,7.32
2023-01-12T01:47:36.125Z,7.30
2023-01-12T01:50:13.297Z,7.32
2023-01-12T01:52:43.402Z,7.31
2023-01-12T01:55:15.007Z,7.31
2023-01-12T01:57:47.368Z,7.32
2023-01-12T02:00:15.544Z,7.31
2023-01-12T02:02:45.812Z,7.32
2023-01-12T02:05:15.173Z,7.33
2023-01-12T02:07:42.839Z,7.31
2023-01-12T02:10:11.263Z,7.29
2023-01-12T02:12:56.947Z,7.32
2023-01-12T02:15:45.105Z,7.33
2023-01-12T02:18:20.121Z,7.32
2023-01-12T02:20:54.637Z,7.29
2023-01-12T02:23:50.046Z,7.27
2023-01-12T02:26:54.860Z,7.28
2023-01-12T02:29:53.929Z,7.26
2023-01-12T02:32:32.710Z,7.25
2023-01-12T02:35:11.687Z,7.23
2023-01-12T02:37:46.399Z,7.23
2023-01-12T02:40:22.604Z,7.24
2023-01-12T02:42:59.930Z,7.27
2023-01-12T02:45:35.616Z,7.28
2023-01-12T02:48:10.449Z,7.31
2023-01-12T02:50:51.325Z,7.35
2023-01-12T02:53:24.214Z,7.36
2023-01-12T02:55:53.283Z,7.36
2023-01-12T02:58:24.151Z,7.38
2023-01-12T03:00:56.021Z,7.38
2023-01-12T03:03:26.022Z,7.35
2023-01-12T03:05:56.146Z,7.38
2023-01-12T03:08:28.655Z,7.38
2023-01-12T03:11:12.939Z,7.36
2023-01-12T03:13:44.747Z,7.32
2023-01-12T03:16:16.174Z,7.31
2023-01-12T03:18:50.965Z,7.32
2023-01-12T03:21:26.474Z,7.33
2023-01-12T03:24:00.433Z,7.33
2023-01-12T03:26:30.958Z,7.35
2023-01-12T03:29:04.875Z,7.35
2023-01-12T03:31:33.198Z,7.33
2023-01-12T03:34:02.432Z,7.36
2023-01-12T03:36:40.632Z,7.38
2023-01-12T03:39:15.806Z,7.39
2023-01-12T03:41:54.069Z,7.40
2023-01-12T03:44:28.310Z,7.41
2023-01-12T03:47:02.280Z,7.38
2023-01-12T03:49:36.250Z,7.40
2023-01-12T03:52:06.099Z,7.40
2023-01-12T03:54:37.710Z,7.41
2023-01-12T03:57:06.060Z,7.38
2023-01-12T03:59:33.834Z,7.37
2023-01-12T04:02:01.398Z,7.36
2023-01-12T04:04:28.996Z,7.35
2023-01-12T04:06:58.634Z,7.34
2023-01-12T04:09:26.866Z,7.36
2023-01-12T04:12:20.327Z,7.37
2023-01-12T04:14:48.583Z,7.38
2023-01-12T04:17:17.036Z,7.38
2023-01-12T04:19:44.527Z,7.38
2023-01-12T04:22:34.005Z,7.40
2023-01-12T04:25:01.467Z,7.40
2023-01-12T04:27:29.053Z,7.36
2023-01-12T04:29:56.548Z,7.32
2023-01-12T04:32:24.054Z,7.31
2023-01-12T04:34:51.560Z,7.33
2023-01-12T04:37:20.428Z,7.35
2023-01-12T04:39:47.936Z,7.34
2023-01-12T04:42:29.605Z,7.35
2023-01-12T04:44:57.072Z,7.34
2023-01-12T04:47:24.585Z,7.32
2023-01-12T04:49:52.060Z,7.28
2023-01-12T04:52:20.869Z,7.25
2023-01-12T04:54:48.322Z,7.24
2023-01-12T04:57:15.783Z,7.21
2023-01-12T04:59:43.234Z,7.20
2023-01-12T05:02:10.763Z,7.20
2023-01-12T05:04:38.212Z,7.23
2023-01-12T05:07:05.791Z,7.22
2023-01-12T05:09:52.108Z,7.23
2023-01-12T05:12:20.289Z,7.22
2023-01-12T05:14:47.754Z,7.22
2023-01-12T05:17:15.249Z,7.24
2023-01-12T05:19:42.743Z,7.26
2023-01-12T05:22:10.259Z,7.27
2023-01-12T05:24:39.057Z,7.29
2023-01-12T05:27:06.571Z,7.30
2023-01-12T05:29:34.068Z,7.29
2023-01-12T05:32:01.617Z,7.28
2023-01-12T05:34:29.098Z,7.27
2023-01-12T05:36:56.560Z,7.23
2023-01-12T05:39:24.043Z,7.20
2023-01-12T05:42:10.802Z,7.21
2023-01-12T05:44:38.279Z,7.20
2023-01-12T05:47:05.843Z,7.21
2023-01-12T05:49:33.319Z,7.20
2023-01-12T05:52:00.819Z,7.20
2023-01-12T05:54:28.376Z,7.20
2023-01-12T05:56:57.162Z,7.22
2023-01-12T05:59:24.993Z,7.23
2023-01-12T06:01:52.448Z,7.23
2023-01-12T06:04:19.987Z,7.26
2023-01-12T06:06:48.697Z,7.30
2023-01-12T06:09:17.319Z,7.32
2023-01-12T06:12:02.371Z,7.32
2023-01-12T06:14:31.491Z,7.32
2023-01-12T06:16:59.000Z,7.34
2023-01-12T06:19:26.532Z,7.36
2023-01-12T06:21:55.172Z,7.35
2023-01-12T06:24:22.668Z,7.37
2023-01-12T06:26:50.433Z,7.39
2023-01-12T06:29:17.903Z,7.39
2023-01-12T06:31:46.715Z,7.37
2023-01-12T06:34:14.198Z,7.38
2023-01-12T06:36:42.746Z,7.37
2023-01-12T06:39:12.077Z,7.36
2023-01-12T06:41:57.430Z,7.36
2023-01-12T06:44:24.943Z,7.38
2023-01-12T06:46:53.732Z,7.36
2023-01-12T06:49:21.190Z,7.35
2023-01-12T06:51:48.876Z,7.36
2023-01-12T06:54:18.407Z,7.38
2023-01-12T06:56:46.197Z,7.39
2023-01-12T06:59:14.079Z,7.38
2023-01-12T07:01:42.268Z,7.39
2023-01-12T07:04:11.117Z,7.38
2023-01-12T07:06:38.628Z,7.40
2023-01-12T07:09:06.233Z,7.43
2023-01-12T07:11:33.918Z,7.45
2023-01-12T07:14:01.405Z,7.43
2023-01-12T07:16:28.937Z,7.41
2023-01-12T07:18:56.449Z,7.43
2023-01-12T07:21:25.301Z,7.45
2023-01-12T07:23:52.759Z,7.48
2023-01-12T07:26:20.231Z,7.47
2023-01-12T07:28:47.735Z,7.48
2023-01-12T07:31:15.219Z,7.47
2023-01-12T07:33:42.707Z,7.45
2023-01-12T07:36:10.501Z,7.45
2023-01-12T07:38:39.304Z,7.43
2023-01-12T07:41:26.731Z,7.42
2023-01-12T07:43:54.196Z,7.42
2023-01-12T07:46:21.722Z,7.39
2023-01-12T07:48:49.247Z,7.35
2023-01-12T07:51:16.738Z,7.35
2023-01-12T07:53:45.602Z,7.34
2023-01-12T07:56:15.961Z,7.32
2023-01-12T07:58:43.518Z,7.32
2023-01-12T08:01:11.136Z,7.33
2023-01-12T08:03:39.656Z,7.33
2023-01-12T08:06:07.604Z,7.34
2023-01-12T08:08:35.500Z,7.37
2023-01-12T08:11:05.222Z,7.38
2023-01-12T08:13:32.813Z,7.36
2023-01-12T08:16:06.322Z,7.37
2023-01-12T08:18:39.385Z,7.38
2023-01-12T08:21:12.668Z,7.37
2023-01-12T08:23:43.547Z,7.37
2023-01-12T08:26:16.084Z,7.40
2023-01-12T08:28:49.197Z,7.45
2023-01-12T08:33:53.057Z,7.48
2023-01-12T08:36:21.693Z,7.48
2023-01-12T08:38:49.509Z,7.47
2023-01-12T08:41:33.473Z,7.46
2023-01-12T08:44:05.882Z,7.45
2023-01-12T08:46:35.237Z,7.43
2023-01-12T08:49:03.472Z,7.41
2023-01-12T08:51:31.331Z,7.43
2023-01-12T08:53:58.806Z,7.46
2023-01-12T08:56:27.725Z,7.47
2023-01-12T08:58:55.952Z,7.49
2023-01-12T09:01:23.584Z,7.53
2023-01-12T09:03:51.133Z,7.54
2023-01-12T09:06:20.578Z,7.55
2023-01-12T09:08:49.014Z,7.55
2023-01-12T09:11:16.830Z,7.57
2023-01-12T09:13:45.772Z,7.60
2023-01-12T09:16:15.482Z,7.62
2023-01-12T09:18:43.468Z,7.63
2023-01-12T09:21:12.642Z,7.67
2023-01-12T09:23:40.419Z,7.69
2023-01-12T09:26:11.065Z,7.70
2023-01-12T09:28:38.611Z,7.70
2023-01-12T09:31:10.146Z,7.71
2023-01-12T09:33:38.733Z,7.72
2023-01-12T09:36:08.413Z,7.76
2023-01-12T09:38:36.709Z,7.78
2023-01-12T09:41:11.451Z,7.80
2023-01-12T09:43:57.700Z,7.81
2023-01-12T09:46:49.178Z,7.83
2023-01-12T09:49:18.319Z,7.86
2023-01-12T09:51:52.277Z,7.89
2023-01-12T09:54:20.662Z,7.91
2023-01-12T09:56:54.434Z,7.92
2023-01-12T09:59:38.649Z,7.95
2023-01-12T10:02:12.834Z,7.97
2023-01-12T10:04:40.812Z,8.00
2023-01-12T10:07:14.828Z,8.03
2023-01-12T10:09:43.097Z,8.05
2023-01-12T10:12:20.390Z,8.09
2023-01-12T10:15:17.573Z,8.12
2023-01-12T10:17:52.285Z,8.14
2023-01-12T10:20:28.470Z,8.14
2023-01-12T10:23:01.845Z,8.16
2023-01-12T10:25:35.900Z,8.17
2023-01-12T10:28:08.234Z,8.18
2023-01-12T10:30:39.239Z,8.20
2023-01-12T10:33:14.273Z,8.21
2023-01-12T10:35:54.183Z,8.24
2023-01-12T10:38:28.303Z,8.24
2023-01-12T10:41:14.430Z,8.24
2023-01-12T10:43:43.487Z,8.26
2023-01-12T10:46:14.302Z,8.28
2023-01-12T10:48:45.669Z,8.30
2023-01-12T10:51:26.051Z,8.30
2023-01-12T10:53:57.709Z,8.31
2023-01-12T10:56:30.137Z,8.34
2023-01-12T10:59:01.806Z,8.37
2023-01-12T11:01:44.694Z,8.38
2023-01-12T11:04:15.267Z,8.40
2023-01-12T11:06:45.300Z,8.40
2023-01-12T11:09:20.226Z,8.42
2023-01-12T11:11:47.819Z,8.47
2023-01-12T11:14:26.675Z,8.50
2023-01-12T11:16:54.184Z,8.55
2023-01-12T11:19:30.277Z,8.58
2023-01-12T11:22:02.426Z,8.61
2023-01-12T11:24:38.093Z,8.64
2023-01-12T11:27:15.027Z,8.66
2023-01-12T11:29:48.140Z,8.70
2023-01-12T11:32:20.839Z,8.72
2023-01-12T11:35:05.308Z,8.76
2023-01-12T11:37:38.689Z,8.81
2023-01-12T11:40:16.563Z,8.85
2023-01-12T11:43:11.197Z,8.89
2023-01-12T11:45:47.266Z,8.92
2023-01-12T11:48:24.662Z,8.95
2023-01-12T11:50:54.888Z,8.96
2023-01-12T11:53:25.553Z,9.01
2023-01-12T11:56:10.828Z,9.06
2023-01-12T11:58:46.530Z,9.07
2023-01-12T12:01:21.571Z,9.08
2023-01-12T12:03:55.564Z,9.08
2023-01-12T12:06:56.251Z,9.11
2023-01-12T12:09:40.199Z,9.13
2023-01-12T12:12:16.661Z,9.16
2023-01-12T12:14:59.431Z,9.19
2023-01-12T12:17:41.670Z,9.20
2023-01-12T12:20:17.378Z,9.20
2023-01-12T12:23:00.653Z,9.19
2023-01-12T12:25:39.200Z,9.19
2023-01-12T12:28:21.656Z,9.20
2023-01-12T12:31:09.944Z,9.18
2023-01-12T12:34:00.749Z,9.19
2023-01-12T12:36:35.482Z,9.21
2023-01-12T12:39:39.444Z,9.23
2023-01-12T12:42:36.268Z,9.25
2023-01-12T12:45:18.383Z,9.26
2023-01-12T12:48:06.981Z,9.26
2023-01-12T12:50:41.033Z,9.27
2023-01-12T12:53:17.169Z,9.29
2023-01-12T12:55:47.202Z,9.31
2023-01-12T12:58:42.948Z,9.33
2023-01-12T13:01:42.730Z,9.34
2023-01-12T13:04:12.764Z,9.37
2023-01-12T13:06:44.805Z,9.40
2023-01-12T13:09:40.898Z,9.44
2023-01-12T13:12:32.843Z,9.44
2023-01-12T13:15:19.116Z,9.44
2023-01-12T13:17:48.831Z,9.45
2023-01-12T13:20:36.703Z,9.44
2023-01-12T13:23:25.708Z,9.43
2023-01-12T13:25:57.573Z,9.43
2023-01-12T13:28:26.443Z,9.41
2023-01-12T13:30:55.470Z,9.42
2023-01-12T13:33:25.633Z,9.42
2023-01-12T13:36:10.367Z,9.44
2023-01-12T13:38:53.127Z,9.46
2023-01-12T13:41:49.594Z,9.46
2023-01-12T13:44:25.102Z,9.47
2023-01-12T13:47:00.281Z,9.49
2023-01-12T13:49:31.223Z,9.52
2023-01-12T13:52:00.907Z,9.53
2023-01-12T13:54:29.196Z,9.56
2023-01-12T13:56:59.731Z,9.58
2023-01-12T13:59:30.001Z,9.57
2023-01-12T14:01:58.630Z,9.56
2023-01-12T14:04:57.718Z,9.59
2023-01-12T14:07:53.643Z,9.61
2023-01-12T14:10:35.421Z,9.63
2023-01-12T14:13:28.945Z,9.64
2023-01-12T14:16:19.648Z,9.63
2023-01-12T14:18:48.801Z,9.63
2023-01-12T14:21:23.245Z,9.63
2023-01-12T14:23:50.904Z,9.62
2023-01-12T14:26:23.882Z,9.64
2023-01-12T14:28:52.905Z,9.63
2023-01-12T14:31:28.140Z,9.64
2023-01-12T14:33:57.349Z,9.63
2023-01-12T14:36:29.160Z,9.64
2023-01-12T14:38:59.132Z,9.64
2023-01-12T14:41:46.286Z,9.64
2023-01-12T14:44:37.603Z,9.65
2023-01-12T14:47:06.938Z,9.67
2023-01-12T14:49:35.927Z,9.67
2023-01-12T14:52:22.873Z,9.68
2023-01-12T14:54:52.092Z,9.69
2023-01-12T14:57:23.849Z,9.71
2023-01-12T14:59:51.794Z,9.71
2023-01-12T15:02:31.007Z,9.70
2023-01-12T15:05:01.327Z,9.69
2023-01-12T15:07:34.149Z,9.66
2023-01-12T15:10:03.875Z,9.65
2023-01-12T15:12:44.921Z,9.61
2023-01-12T15:15:21.488Z,9.60
2023-01-12T15:18:09.635Z,9.59
2023-01-12T15:20:56.998Z,9.62
2023-01-12T15:23:46.331Z,9.63
2023-01-12T15:26:13.965Z,9.64
2023-01-12T15:28:41.911Z,9.63
2023-01-12T15:31:20.303Z,9.64
2023-01-12T15:33:49.245Z,9.64
2023-01-12T15:36:16.775Z,9.64
2023-01-12T15:38:44.309Z,9.62
2023-01-12T15:41:18.303Z,9.58
2023-01-12T15:43:45.916Z,9.56
2023-01-12T15:46:19.962Z,9.53
2023-01-12T15:48:48.807Z,9.53
2023-01-12T15:51:16.904Z,9.54
2023-01-12T15:53:44.399Z,9.54
2023-01-12T15:56:15.181Z,9.54
2023-01-12T15:58:42.949Z,9.56
2023-01-12T16:01:14.962Z,9.57
2023-01-12T16:04:09.505Z,9.56
2023-01-12T16:06:33.833Z,9.56
2023-01-12T16:09:01.930Z,9.56
2023-01-12T16:11:29.433Z,9.54
2023-01-12T16:13:57.674Z,9.52
2023-01-12T16:16:26.551Z,9.52
2023-01-12T16:18:59.756Z,9.50
2023-01-12T16:21:29.397Z,9.51
2023-01-12T16:23:58.219Z,9.48
2023-01-12T16:26:26.694Z,9.51
2023-01-12T16:28:54.751Z,9.52
2023-01-12T16:31:22.442Z,9.54
2023-01-12T16:33:49.981Z,9.58
2023-01-12T16:36:17.552Z,9.59
2023-01-12T16:38:45.058Z,9.60
2023-01-12T16:41:18.775Z,9.61
2023-01-12T16:43:46.355Z,9.61
2023-01-12T16:46:14.625Z,9.60
2023-01-12T16:48:42.249Z,9.58
2023-01-12T16:51:11.528Z,9.54
2023-01-12T16:53:40.606Z,9.59
2023-01-12T16:56:08.396Z,9.59
2023-01-12T16:58:37.692Z,9.58
2023-01-12T17:01:11.504Z,9.58
2023-01-12T17:03:41.591Z,9.59
2023-01-12T17:06:10.767Z,9.58
2023-01-12T17:08:39.044Z,9.56
2023-01-12T17:11:08.532Z,9.56
2023-01-12T17:13:37.891Z,9.57
2023-01-12T17:16:09.120Z,9.58
2023-01-12T17:18:37.349Z,9.58
2023-01-12T17:21:07.840Z,9.59
2023-01-12T17:23:36.414Z,9.59
2023-01-12T17:26:04.733Z,9.60
2023-01-12T17:28:34.855Z,9.59
2023-01-12T17:31:08.099Z,9.57
2023-01-12T17:33:35.849Z,9.56
2023-01-12T17:36:05.349Z,9.54
2023-01-12T17:38:33.326Z,9.53
2023-01-12T17:41:00.889Z,9.50
2023-01-12T17:43:27.471Z,9.51
2023-01-12T17:45:55.094Z,9.52
2023-01-12T17:48:23.925Z,9.52
2023-01-12T17:50:51.667Z,9.53
2023-01-12T17:53:19.825Z,9.54
2023-01-12T17:55:49.169Z,9.54
2023-01-12T17:58:18.605Z,9.54
2023-01-12T18:00:46.296Z,9.56
2023-01-12T18:03:13.865Z,9.57
2023-01-12T18:05:46.911Z,9.58
2023-01-12T18:08:14.656Z,9.57
2023-01-12T18:10:42.167Z,9.57
2023-01-12T18:13:10.743Z,9.59
2023-01-12T18:15:41.267Z,9.61
2023-01-12T18:18:08.792Z,9.62
2023-01-12T18:20:36.274Z,9.62
2023-01-12T18:23:05.088Z,9.61
2023-01-12T18:25:36.227Z,9.57
2023-01-12T18:28:05.182Z,9.56
2023-01-12T18:30:32.703Z,9.56
2023-01-12T18:33:00.228Z,9.53
2023-01-12T18:35:28.052Z,9.56
2023-01-12T18:37:55.679Z,9.55
2023-01-12T18:40:24.543Z,9.54
2023-01-12T18:42:51.051Z,9.55
2023-01-12T18:45:19.363Z,9.54
2023-01-12T18:48:04.379Z,9.53
2023-01-12T18:51:01.153Z,9.52
2023-01-12T18:53:32.416Z,9.52
2023-01-12T18:56:03.182Z,9.54
2023-01-12T18:58:33.281Z,9.54
2023-01-12T19:01:02.769Z,9.54
2023-01-12T19:03:30.304Z,9.57
2023-01-12T19:06:01.038Z,9.58
2023-01-12T19:08:47.101Z,9.57
2023-01-12T19:11:17.142Z,9.57
2023-01-12T19:14:02.372Z,9.59
2023-01-12T19:16:47.668Z,9.59
2023-01-12T19:19:15.400Z,9.59
2023-01-12T19:22:00.529Z,9.58
2023-01-12T19:24:45.910Z,9.60
2023-01-12T19:27:38.123Z,9.61
2023-01-12T19:30:06.949Z,9.63
2023-01-12T19:32:34.713Z,9.63
2023-01-12T19:35:10.655Z,9.63
2023-01-12T19:37:39.217Z,9.63
2023-01-12T19:40:13.486Z,9.62
2023-01-12T19:43:00.153Z,9.58
2023-01-12T19:45:27.664Z,9.57
2023-01-12T19:47:55.271Z,9.55
2023-01-12T19:50:22.812Z,9.53
2023-01-12T19:52:50.341Z,9.53
2023-01-12T19:55:17.861Z,9.54
2023-01-12T19:57:46.728Z,9.54
2023-01-12T20:00:16.402Z,9.54
2023-01-12T20:02:44.673Z,9.56
2023-01-12T20:05:17.123Z,9.53
2023-01-12T20:07:44.670Z,9.51
2023-01-12T20:10:12.288Z,9.47
2023-01-12T20:12:39.831Z,9.46
2023-01-12T20:15:10.336Z,9.45
2023-01-12T20:17:38.069Z,9.44
2023-01-12T20:20:08.310Z,9.44
2023-01-12T20:22:36.251Z,9.45
2023-01-12T20:25:03.934Z,9.46
2023-01-12T20:27:33.154Z,9.46
2023-01-12T20:30:01.197Z,9.48
2023-01-12T20:32:32.320Z,9.48
2023-01-12T20:35:03.418Z,9.47
2023-01-12T20:37:30.957Z,9.47
2023-01-12T20:39:58.492Z,9.49
2023-01-12T20:42:26.221Z,9.49
2023-01-12T20:44:53.708Z,9.48
2023-01-12T20:47:21.648Z,9.47
2023-01-12T20:49:50.474Z,9.48
2023-01-12T20:52:18.020Z,9.46
2023-01-12T20:54:45.591Z,9.45
2023-01-12T20:57:13.084Z,9.45
2023-01-12T20:59:40.981Z,9.45
2023-01-12T21:02:09.020Z,9.46
2023-01-12T21:04:36.568Z,9.44
2023-01-12T21:07:05.376Z,9.42
2023-01-12T21:09:32.957Z,9.40
2023-01-12T21:12:00.474Z,9.39
2023-01-12T21:14:28.393Z,9.39
2023-01-12T21:16:55.856Z,9.38
2023-01-12T21:19:23.353Z,9.39
2023-01-12T21:21:50.835Z,9.41
2023-01-12T21:24:19.755Z,9.44
2023-01-12T21:26:47.470Z,9.46
2023-01-12T21:29:14.989Z,9.44
2023-01-12T21:31:42.514Z,9.44
2023-01-12T21:34:10.060Z,9.44
2023-01-12T21:36:38.547Z,9.43
2023-01-12T21:39:09.071Z,9.41
2023-01-12T21:45:05.460Z,9.40
2023-01-12T21:47:34.131Z,9.39
2023-01-12T21:50:02.649Z,9.38
2023-01-12T21:52:33.326Z,9.36
2023-01-12T21:55:02.062Z,9.36
2023-01-12T21:57:32.127Z,9.36
2023-01-12T22:00:01.007Z,9.37
2023-01-12T22:02:31.308Z,9.39
2023-01-12T22:05:00.628Z,9.38
2023-01-12T22:07:29.878Z,9.37
2023-01-12T22:10:18.411Z,9.37
2023-01-12T22:12:49.920Z,9.39
2023-01-12T22:15:18.976Z,9.40
2023-01-12T22:17:48.625Z,9.39
2023-01-12T22:20:18.405Z,9.39
2023-01-12T22:22:47.844Z,9.37
2023-01-12T22:25:19.016Z,9.37
2023-01-12T22:27:50.628Z,9.38
2023-01-12T22:30:22.244Z,9.38
2023-01-12T22:32:54.031Z,9.38
2023-01-12T22:35:23.945Z,9.37
2023-01-12T22:37:53.160Z,9.40
2023-01-12T22:40:22.064Z,9.41
2023-01-12T22:43:10.908Z,9.41
2023-01-12T22:45:41.457Z,9.40
2023-01-12T22:48:11.491Z,9.42
2023-01-12T22:50:42.062Z,9.42
2023-01-12T22:53:11.948Z,9.43
2023-01-12T22:55:43.468Z,9.43
2023-01-12T22:58:15.975Z,9.44
2023-01-12T23:00:46.270Z,9.46
2023-01-12T23:03:18.220Z,9.48
2023-01-12T23:05:49.813Z,9.50
2023-01-12T23:08:20.271Z,9.50
2023-01-12T23:10:54.345Z,9.51
2023-01-12T23:13:27.692Z,9.52
2023-01-12T23:16:06.656Z,9.53
2023-01-12T23:18:39.624Z,9.54
2023-01-12T23:21:15.890Z,9.56
2023-01-12T23:23:51.045Z,9.56
2023-01-12T23:26:28.292Z,9.55
2023-01-12T23:29:03.938Z,9.53
2023-01-12T23:31:36.809Z,9.53
2023-01-12T23:34:10.354Z,9.51
2023-01-12T23:36:42.819Z,9.53
2023-01-12T23:39:13.691Z,9.55
2023-01-12T23:41:43.863Z,9.56
2023-01-12T23:44:18.122Z,9.58
2023-01-12T23:46:48.735Z,9.59
2023-01-12T23:49:19.583Z,9.61
2023-01-12T23:51:49.736Z,9.64
2023-01-12T23:54:21.945Z,9.67
2023-01-12T23:56:56.624Z,9.67
2023-01-12T23:59:27.657Z,9.70
